Irwinville, GA (31760)

11:01 AM EDT on August 27, 2014 (GMT -0400)
Fitzgerald Municipal | Change Station
CLOSE
Current Station
Airport
Location: Fitzgerald Muni, Fitzgerald,,
Elevation: 364 ft
Nearby Weather Stations

Elev 364 ft 31.68 °N, 83.27 °W | Updated 26 minutes ago

Clear
Clear
82 °F
Feels Like 83 °F
N
5
Wind Variable Wind from NE

Today
High -- | Low -- °F
--% Chance of Precip.
Yesterday
High -- | Low -- °F
Precip. -- in
7:06 AM 8:03 PM
Waxing Crescent, 4% visible
Pressure 30.10 in
Visibility 10.0 miles
Clouds Clear
Heat Index 83 °F
Dew Point 61 °F
Humidity 48%
Rainfall 0.00 in
Snow Depth Not available.
UV 6 out of 12
Pollen 8.30 out of 12
Air Quality Not available.
Flu Activity Not available.
METAR KFZG 271435Z AUTO 05004KT 10SM CLR 28/16 A3010 RMK AO2 T02800162

More Conditions Fewer Conditions

Pressure 30.10 in
Visibility 10.0 miles
Clouds Clear
Heat Index 83 °F
Dew Point 61 °F
Humidity 48%
Rainfall 0.00 in
Snow Depth Not available.
UV 6 out of 12
Pollen 8.30 out of 12
Air Quality Not available.
Flu Activity Not available.
METAR KFZG 271435Z AUTO 05004KT 10SM CLR 28/16 A3010 RMK AO2 T02800162

More Conditions Fewer Conditions

10-Day Weather Forecast

Almanac

Astronomy

Aug. 27, 2014 Rise Set
Actual Time 7:06 AM EDT 8:03 PM EDT
Civil Twilight 6:41 AM EDT 8:28 PM EDT
Nautical Twilight 6:11 AM EDT 8:58 PM EDT
Astronomical Twilight 5:41 AM EDT 9:28 PM EDT
Moon 8:51 AM EDT 9:06 PM EDT
Length of Visible Light 13h 47m
Length of Day
12h 57m
Tomorrow will be 1m 49s shorter.
Waxing Crescent, 4% of the Moon is Illuminated
Today
Waxing Crescent
Sep 2
First Quarter
Sep 8
Full
Sep 15
Last Quarter
Sep 24
New

Today's Extremes

State Highs State Lows

Community

WunderPhotos

Upload Photos

1,747,703 photos uploaded!

Nearby

Snow Depth

Station Depth Elevation
No new snow has been reported.

Earthquake Activity

City Distance Mag. Time & Date
No recent earthquake activity has been reported nearby.
Minimum magnitude displayed is 2.5.

Coastal Water Temperatures

Place Temperature
No Stations Reporting

Nearby Weather Stations